createdAt,value
2023-05-23T00:11:31.735Z,76.93
2023-05-23T00:26:34.774Z,74.26
2023-05-23T00:41:37.841Z,74.90
2023-05-23T00:56:40.990Z,77.20
2023-05-23T01:11:48.658Z,76.89
2023-05-23T01:27:01.994Z,75.08
2023-05-23T01:42:05.576Z,75.70
2023-05-23T01:57:08.822Z,74.94
2023-05-23T02:12:11.935Z,75.08
2023-05-23T02:27:15.524Z,73.63
2023-05-23T02:42:18.705Z,74.57
2023-05-23T02:57:22.224Z,74.72
2023-05-23T03:12:25.425Z,74.74
2023-05-23T03:27:29.684Z,75.78
2023-05-23T03:42:32.953Z,76.54
2023-05-23T03:57:36.056Z,73.43
2023-05-23T04:12:39.191Z,71.88
2023-05-23T04:27:44.633Z,72.53
2023-05-23T04:42:48.321Z,71.98
2023-05-23T04:58:13.940Z,70.09
2023-05-23T05:13:17.908Z,70.63
2023-05-23T05:28:24.978Z,69.87
2023-05-23T05:43:29.684Z,70.65
2023-05-23T05:58:32.825Z,67.48
2023-05-23T06:13:39.206Z,66.05
2023-05-23T06:28:43.484Z,64.76
2023-05-23T06:43:48.692Z,67.58
2023-05-23T06:58:59.217Z,66.93
2023-05-23T07:14:03.516Z,67.33
2023-05-23T07:29:21.190Z,61.23
2023-05-23T07:44:25.883Z,64.02
2023-05-23T07:59:30.210Z,63.36
2023-05-23T08:14:46.371Z,60.00
2023-05-23T08:29:59.931Z,59.72
2023-05-23T08:45:03.551Z,59.51
2023-05-23T09:00:09.090Z,59.98
2023-05-23T09:15:12.806Z,60.45
2023-05-23T09:30:17.904Z,61.31
2023-05-23T09:45:29.934Z,60.50
2023-05-23T10:00:33.283Z,55.48
2023-05-23T10:15:39.272Z,56.68
2023-05-23T10:30:43.026Z,59.26
2023-05-23T10:45:46.477Z,61.55
2023-05-23T11:00:53.529Z,60.47
2023-05-23T11:15:56.638Z,62.38
2023-05-23T11:31:00.588Z,59.67
2023-05-23T11:46:09.317Z,60.35
2023-05-23T12:01:12.868Z,60.33
2023-05-23T12:16:16.176Z,58.80
2023-05-23T12:31:21.510Z,57.09
2023-05-23T12:46:26.043Z,56.37
2023-05-23T13:01:29.199Z,54.80
2023-05-23T13:16:32.474Z,55.29
2023-05-23T13:31:35.761Z,55.42
2023-05-23T13:46:38.984Z,59.18
2023-05-23T14:01:42.068Z,57.41
2023-05-23T14:16:45.269Z,59.89
2023-05-23T14:31:48.368Z,58.81
2023-05-23T14:46:51.434Z,60.73
2023-05-23T15:01:54.681Z,58.65
2023-05-23T15:16:57.766Z,60.59
2023-05-23T15:32:01.389Z,55.15
2023-05-23T15:47:06.313Z,55.50
2023-05-23T16:02:10.213Z,54.10
2023-05-23T16:17:14.793Z,54.74
2023-05-23T16:32:18.920Z,55.62
2023-05-23T16:47:22.330Z,55.77
2023-05-23T17:02:25.881Z,53.55
2023-05-23T17:17:29.791Z,54.27
2023-05-23T17:32:33.191Z,53.97
2023-05-23T17:47:37.993Z,54.61
2023-05-23T18:02:41.506Z,56.71
2023-05-23T18:17:45.240Z,54.97
2023-05-23T18:32:48.680Z,57.45
2023-05-23T18:47:52.121Z,58.17
2023-05-23T19:02:57.769Z,58.43
2023-05-23T19:18:04.225Z,59.25
2023-05-23T19:33:07.896Z,60.19
2023-05-23T19:48:15.292Z,61.71
2023-05-23T20:03:19.573Z,61.57
2023-05-23T20:18:27.838Z,62.79
2023-05-23T20:33:33.581Z,61.74
2023-05-23T20:48:39.117Z,61.04
2023-05-23T21:03:43.514Z,62.63
2023-05-23T21:18:47.002Z,66.00
2023-05-23T21:33:51.816Z,66.88
2023-05-23T21:48:54.857Z,66.85
2023-05-23T22:03:58.599Z,65.85
2023-05-23T22:19:01.904Z,65.50
2023-05-23T22:34:05.317Z,64.52
2023-05-23T22:49:08.434Z,66.47
2023-05-23T23:04:11.487Z,66.51
2023-05-23T23:19:14.632Z,67.18
2023-05-23T23:34:17.736Z,67.92
2023-05-23T23:49:20.767Z,69.70
